sensor_id;sensor_type;location;lat;lon;timestamp;P1;durP1;ratioP1;P2;durP2;ratioP2
29120;SDS011;16191;49.548;8.658;2022-11-15T00:00:40;3.65;;;2.28;;
29120;SDS011;16191;49.548;8.658;2022-11-15T00:03:26;3.95;;;2.38;;
29120;SDS011;16191;49.548;8.658;2022-11-15T00:06:13;7.40;;;2.50;;
29120;SDS011;16191;49.548;8.658;2022-11-15T00:08:59;4.18;;;2.50;;
29120;SDS011;16191;49.548;8.658;2022-11-15T00:11:45;7.40;;;2.30;;
29120;SDS011;16191;49.548;8.658;2022-11-15T00:14:30;4.00;;;2.55;;
29120;SDS011;16191;49.548;8.658;2022-11-15T00:17:15;6.35;;;2.78;;
29120;SDS011;16191;49.548;8.658;2022-11-15T00:20:01;4.93;;;2.50;;
29120;SDS011;16191;49.548;8.658;2022-11-15T00:22:46;5.32;;;2.55;;
29120;SDS011;16191;49.548;8.658;2022-11-15T00:25:32;5.00;;;2.22;;
29120;SDS011;16191;49.548;8.658;2022-11-15T00:28:18;6.65;;;2.50;;
29120;SDS011;16191;49.548;8.658;2022-11-15T00:31:04;6.85;;;2.53;;
29120;SDS011;16191;49.548;8.658;2022-11-15T00:33:51;5.93;;;3.05;;
29120;SDS011;16191;49.548;8.658;2022-11-15T00:36:37;3.85;;;2.50;;
29120;SDS011;16191;49.548;8.658;2022-11-15T00:39:22;5.63;;;2.80;;
29120;SDS011;16191;49.548;8.658;2022-11-15T00:42:08;7.03;;;2.70;;
29120;SDS011;16191;49.548;8.658;2022-11-15T00:44:53;4.40;;;2.30;;
29120;SDS011;16191;49.548;8.658;2022-11-15T00:47:38;3.65;;;2.10;;
29120;SDS011;16191;49.548;8.658;2022-11-15T00:50:24;4.80;;;2.30;;
29120;SDS011;16191;49.548;8.658;2022-11-15T00:53:10;3.90;;;2.35;;
29120;SDS011;16191;49.548;8.658;2022-11-15T00:55:55;5.75;;;2.25;;
29120;SDS011;16191;49.548;8.658;2022-11-15T00:58:40;5.20;;;2.75;;
29120;SDS011;16191;49.548;8.658;2022-11-15T01:01:25;8.55;;;3.15;;
29120;SDS011;16191;49.548;8.658;2022-11-15T01:04:11;9.75;;;2.90;;
29120;SDS011;16191;49.548;8.658;2022-11-15T01:07:16;6.88;;;3.25;;
29120;SDS011;16191;49.548;8.658;2022-11-15T01:10:21;4.82;;;2.80;;
29120;SDS011;16191;49.548;8.658;2022-11-15T01:13:29;5.15;;;2.80;;
29120;SDS011;16191;49.548;8.658;2022-11-15T01:16:36;4.50;;;2.60;;
29120;SDS011;16191;49.548;8.658;2022-11-15T01:19:42;7.30;;;2.67;;
29120;SDS011;16191;49.548;8.658;2022-11-15T01:22:47;6.82;;;2.95;;
29120;SDS011;16191;49.548;8.658;2022-11-15T01:25:33;4.53;;;2.45;;
29120;SDS011;16191;49.548;8.658;2022-11-15T01:28:18;5.57;;;2.50;;
29120;SDS011;16191;49.548;8.658;2022-11-15T01:31:04;7.13;;;2.78;;
29120;SDS011;16191;49.548;8.658;2022-11-15T01:33:51;5.00;;;2.75;;
29120;SDS011;16191;49.548;8.658;2022-11-15T01:36:36;5.88;;;2.88;;
29120;SDS011;16191;49.548;8.658;2022-11-15T01:39:21;4.43;;;2.60;;
29120;SDS011;16191;49.548;8.658;2022-11-15T01:42:11;7.20;;;3.05;;
29120;SDS011;16191;49.548;8.658;2022-11-15T01:44:57;3.72;;;2.78;;
29120;SDS011;16191;49.548;8.658;2022-11-15T01:47:43;12.18;;;2.97;;
29120;SDS011;16191;49.548;8.658;2022-11-15T01:50:33;8.95;;;2.58;;
29120;SDS011;16191;49.548;8.658;2022-11-15T01:53:19;5.03;;;2.65;;
29120;SDS011;16191;49.548;8.658;2022-11-15T01:56:09;6.68;;;3.40;;
29120;SDS011;16191;49.548;8.658;2022-11-15T01:58:59;8.35;;;3.08;;
29120;SDS011;16191;49.548;8.658;2022-11-15T02:01:48;3.95;;;2.92;;
29120;SDS011;16191;49.548;8.658;2022-11-15T02:04:43;7.47;;;2.85;;
29120;SDS011;16191;49.548;8.658;2022-11-15T02:07:31;6.43;;;2.85;;
29120;SDS011;16191;49.548;8.658;2022-11-15T02:10:20;4.25;;;2.65;;
29120;SDS011;16191;49.548;8.658;2022-11-15T02:13:07;7.65;;;2.67;;
29120;SDS011;16191;49.548;8.658;2022-11-15T02:16:13;5.82;;;2.78;;
29120;SDS011;16191;49.548;8.658;2022-11-15T02:28:35;6.47;;;2.78;;
29120;SDS011;16191;49.548;8.658;2022-11-15T02:31:36;5.47;;;2.65;;
29120;SDS011;16191;49.548;8.658;2022-11-15T02:40:53;7.38;;;2.63;;
29120;SDS011;16191;49.548;8.658;2022-11-15T02:46:42;6.47;;;2.55;;
29120;SDS011;16191;49.548;8.658;2022-11-15T02:49:53;3.90;;;2.10;;
29120;SDS011;16191;49.548;8.658;2022-11-15T02:52:45;7.47;;;2.63;;
29120;SDS011;16191;49.548;8.658;2022-11-15T02:55:32;4.13;;;2.20;;
29120;SDS011;16191;49.548;8.658;2022-11-15T03:01:38;3.95;;;2.30;;
29120;SDS011;16191;49.548;8.658;2022-11-15T03:14:02;4.32;;;2.45;;
29120;SDS011;16191;49.548;8.658;2022-11-15T03:19:58;5.88;;;2.40;;
29120;SDS011;16191;49.548;8.658;2022-11-15T03:22:47;7.80;;;2.55;;
29120;SDS011;16191;49.548;8.658;2022-11-15T03:25:34;4.97;;;2.63;;
29120;SDS011;16191;49.548;8.658;2022-11-15T03:28:27;4.35;;;2.20;;
29120;SDS011;16191;49.548;8.658;2022-11-15T03:31:18;3.67;;;2.28;;
29120;SDS011;16191;49.548;8.658;2022-11-15T03:34:39;7.68;;;2.38;;
29120;SDS011;16191;49.548;8.658;2022-11-15T03:37:32;5.03;;;2.50;;
29120;SDS011;16191;49.548;8.658;2022-11-15T03:40:23;4.32;;;2.45;;
29120;SDS011;16191;49.548;8.658;2022-11-15T03:43:22;3.58;;;2.50;;
29120;SDS011;16191;49.548;8.658;2022-11-15T03:46:16;5.95;;;2.70;;
29120;SDS011;16191;49.548;8.658;2022-11-15T03:49:13;5.20;;;2.70;;
29120;SDS011;16191;49.548;8.658;2022-11-15T03:52:03;4.78;;;2.72;;
29120;SDS011;16191;49.548;8.658;2022-11-15T03:54:54;3.80;;;2.70;;
29120;SDS011;16191;49.548;8.658;2022-11-15T03:57:40;5.47;;;2.60;;
29120;SDS011;16191;49.548;8.658;2022-11-15T04:00:26;4.20;;;2.78;;
29120;SDS011;16191;49.548;8.658;2022-11-15T04:03:12;5.78;;;2.80;;
29120;SDS011;16191;49.548;8.658;2022-11-15T04:05:58;6.28;;;2.60;;
29120;SDS011;16191;49.548;8.658;2022-11-15T04:08:43;7.07;;;2.88;;
29120;SDS011;16191;49.548;8.658;2022-11-15T04:11:28;5.30;;;2.60;;
29120;SDS011;16191;49.548;8.658;2022-11-15T04:14:13;3.22;;;2.05;;
29120;SDS011;16191;49.548;8.658;2022-11-15T04:16:58;7.93;;;3.17;;
29120;SDS011;16191;49.548;8.658;2022-11-15T04:19:44;7.10;;;2.50;;
29120;SDS011;16191;49.548;8.658;2022-11-15T04:22:48;5.85;;;2.65;;
29120;SDS011;16191;49.548;8.658;2022-11-15T04:25:52;3.60;;;2.60;;
29120;SDS011;16191;49.548;8.658;2022-11-15T04:28:39;9.68;;;3.03;;
29120;SDS011;16191;49.548;8.658;2022-11-15T04:31:45;9.57;;;2.42;;
29120;SDS011;16191;49.548;8.658;2022-11-15T04:34:33;6.30;;;3.00;;
29120;SDS011;16191;49.548;8.658;2022-11-15T04:37:19;5.88;;;2.50;;
29120;SDS011;16191;49.548;8.658;2022-11-15T04:40:04;10.80;;;3.00;;
29120;SDS011;16191;49.548;8.658;2022-11-15T04:42:50;4.78;;;2.58;;
29120;SDS011;16191;49.548;8.658;2022-11-15T04:45:36;6.53;;;2.72;;
29120;SDS011;16191;49.548;8.658;2022-11-15T04:48:21;3.88;;;2.13;;
29120;SDS011;16191;49.548;8.658;2022-11-15T04:51:06;6.53;;;2.45;;
29120;SDS011;16191;49.548;8.658;2022-11-15T04:53:52;6.32;;;2.78;;
29120;SDS011;16191;49.548;8.658;2022-11-15T04:56:37;5.65;;;2.70;;
29120;SDS011;16191;49.548;8.658;2022-11-15T04:59:22;3.58;;;2.50;;
29120;SDS011;16191;49.548;8.658;2022-11-15T05:02:07;4.18;;;2.55;;
29120;SDS011;16191;49.548;8.658;2022-11-15T05:04:53;5.30;;;2.50;;
29120;SDS011;16191;49.548;8.658;2022-11-15T05:07:38;5.57;;;2.30;;
29120;SDS011;16191;49.548;8.658;2022-11-15T05:10:24;11.20;;;2.60;;
29120;SDS011;16191;49.548;8.658;2022-11-15T05:13:09;4.63;;;2.20;;
29120;SDS011;16191;49.548;8.658;2022-11-15T05:15:55;6.57;;;3.22;;
29120;SDS011;16191;49.548;8.658;2022-11-15T05:18:41;5.10;;;2.75;;
29120;SDS011;16191;49.548;8.658;2022-11-15T05:21:29;6.00;;;2.67;;
29120;SDS011;16191;49.548;8.658;2022-11-15T05:24:15;8.07;;;3.30;;
29120;SDS011;16191;49.548;8.658;2022-11-15T05:27:00;6.50;;;3.50;;
29120;SDS011;16191;49.548;8.658;2022-11-15T05:29:44;5.05;;;2.85;;
29120;SDS011;16191;49.548;8.658;2022-11-15T05:32:30;5.57;;;3.10;;
29120;SDS011;16191;49.548;8.658;2022-11-15T05:38:35;8.00;;;3.20;;
29120;SDS011;16191;49.548;8.658;2022-11-15T05:41:22;6.10;;;3.30;;
29120;SDS011;16191;49.548;8.658;2022-11-15T05:44:26;5.40;;;2.97;;
29120;SDS011;16191;49.548;8.658;2022-11-15T05:47:13;7.30;;;3.65;;
29120;SDS011;16191;49.548;8.658;2022-11-15T05:50:05;10.68;;;3.78;;
29120;SDS011;16191;49.548;8.658;2022-11-15T05:52:51;9.63;;;4.18;;
29120;SDS011;16191;49.548;8.658;2022-11-15T05:55:37;8.13;;;4.43;;
29120;SDS011;16191;49.548;8.658;2022-11-15T05:58:24;8.82;;;4.65;;
29120;SDS011;16191;49.548;8.658;2022-11-15T06:01:10;14.80;;;5.22;;
29120;SDS011;16191;49.548;8.658;2022-11-15T06:03:55;9.25;;;5.28;;
29120;SDS011;16191;49.548;8.658;2022-11-15T06:06:40;11.35;;;4.43;;
29120;SDS011;16191;49.548;8.658;2022-11-15T06:09:25;8.30;;;4.10;;
29120;SDS011;16191;49.548;8.658;2022-11-15T06:12:10;7.40;;;4.30;;
29120;SDS011;16191;49.548;8.658;2022-11-15T06:14:55;10.32;;;4.15;;
29120;SDS011;16191;49.548;8.658;2022-11-15T06:17:40;10.63;;;4.53;;
29120;SDS011;16191;49.548;8.658;2022-11-15T06:20:26;9.90;;;4.00;;
29120;SDS011;16191;49.548;8.658;2022-11-15T06:23:13;8.48;;;5.03;;
29120;SDS011;16191;49.548;8.658;2022-11-15T06:25:59;7.03;;;3.80;;
29120;SDS011;16191;49.548;8.658;2022-11-15T06:28:46;8.40;;;3.92;;
29120;SDS011;16191;49.548;8.658;2022-11-15T06:31:31;9.65;;;4.10;;
29120;SDS011;16191;49.548;8.658;2022-11-15T06:34:18;8.35;;;4.13;;
29120;SDS011;16191;49.548;8.658;2022-11-15T06:37:03;8.05;;;4.35;;
29120;SDS011;16191;49.548;8.658;2022-11-15T06:39:48;6.05;;;3.85;;
29120;SDS011;16191;49.548;8.658;2022-11-15T06:42:33;8.93;;;4.25;;
29120;SDS011;16191;49.548;8.658;2022-11-15T06:45:19;5.75;;;3.92;;
29120;SDS011;16191;49.548;8.658;2022-11-15T06:48:05;9.38;;;4.55;;
29120;SDS011;16191;49.548;8.658;2022-11-15T06:50:54;8.63;;;4.35;;
29120;SDS011;16191;49.548;8.658;2022-11-15T06:53:40;13.93;;;4.97;;
29120;SDS011;16191;49.548;8.658;2022-11-15T06:56:25;7.85;;;3.88;;
29120;SDS011;16191;49.548;8.658;2022-11-15T06:59:11;7.80;;;4.63;;
29120;SDS011;16191;49.548;8.658;2022-11-15T07:01:56;8.65;;;4.13;;
29120;SDS011;16191;49.548;8.658;2022-11-15T07:04:42;7.95;;;3.75;;
29120;SDS011;16191;49.548;8.658;2022-11-15T07:07:27;7.28;;;3.42;;
29120;SDS011;16191;49.548;8.658;2022-11-15T07:10:12;14.10;;;4.25;;
29120;SDS011;16191;49.548;8.658;2022-11-15T07:12:57;12.10;;;3.78;;
29120;SDS011;16191;49.548;8.658;2022-11-15T07:15:43;9.45;;;3.67;;
29120;SDS011;16191;49.548;8.658;2022-11-15T07:18:29;8.07;;;3.67;;
29120;SDS011;16191;49.548;8.658;2022-11-15T07:21:14;7.55;;;3.60;;
29120;SDS011;16191;49.548;8.658;2022-11-15T07:23:59;12.15;;;3.75;;
29120;SDS011;16191;49.548;8.658;2022-11-15T07:26:45;8.02;;;3.55;;
29120;SDS011;16191;49.548;8.658;2022-11-15T07:29:30;7.45;;;3.42;;
29120;SDS011;16191;49.548;8.658;2022-11-15T07:32:15;7.97;;;3.60;;
29120;SDS011;16191;49.548;8.658;2022-11-15T07:35:00;13.98;;;3.28;;
29120;SDS011;16191;49.548;8.658;2022-11-15T07:37:52;10.20;;;3.33;;
29120;SDS011;16191;49.548;8.658;2022-11-15T07:40:38;8.20;;;3.05;;
29120;SDS011;16191;49.548;8.658;2022-11-15T07:43:24;7.20;;;3.13;;
29120;SDS011;16191;49.548;8.658;2022-11-15T07:46:09;8.77;;;3.35;;
29120;SDS011;16191;49.548;8.658;2022-11-15T07:48:55;9.82;;;3.72;;
29120;SDS011;16191;49.548;8.658;2022-11-15T07:51:40;12.07;;;3.03;;
29120;SDS011;16191;49.548;8.658;2022-11-15T07:54:25;4.55;;;3.15;;
29120;SDS011;16191;49.548;8.658;2022-11-15T07:57:10;4.93;;;2.92;;
29120;SDS011;16191;49.548;8.658;2022-11-15T07:59:55;6.20;;;3.15;;
29120;SDS011;16191;49.548;8.658;2022-11-15T08:02:41;8.57;;;3.58;;
29120;SDS011;16191;49.548;8.658;2022-11-15T08:05:26;5.43;;;3.20;;
29120;SDS011;16191;49.548;8.658;2022-11-15T08:08:11;8.18;;;3.25;;
29120;SDS011;16191;49.548;8.658;2022-11-15T08:10:59;9.15;;;2.83;;
29120;SDS011;16191;49.548;8.658;2022-11-15T08:13:45;5.13;;;2.45;;
29120;SDS011;16191;49.548;8.658;2022-11-15T08:16:30;3.75;;;2.10;;
29120;SDS011;16191;49.548;8.658;2022-11-15T08:19:15;5.50;;;2.22;;
29120;SDS011;16191;49.548;8.658;2022-11-15T08:22:01;5.20;;;2.20;;
29120;SDS011;16191;49.548;8.658;2022-11-15T08:24:46;4.53;;;2.00;;
29120;SDS011;16191;49.548;8.658;2022-11-15T08:27:31;6.55;;;2.42;;
29120;SDS011;16191;49.548;8.658;2022-11-15T08:30:16;4.55;;;1.90;;
29120;SDS011;16191;49.548;8.658;2022-11-15T08:33:02;11.23;;;2.50;;
29120;SDS011;16191;49.548;8.658;2022-11-15T08:35:47;4.28;;;2.30;;
29120;SDS011;16191;49.548;8.658;2022-11-15T08:38:33;5.43;;;2.47;;
29120;SDS011;16191;49.548;8.658;2022-11-15T08:41:22;4.57;;;2.45;;
29120;SDS011;16191;49.548;8.658;2022-11-15T08:44:11;5.78;;;2.65;;
29120;SDS011;16191;49.548;8.658;2022-11-15T08:46:57;4.68;;;2.20;;
29120;SDS011;16191;49.548;8.658;2022-11-15T08:49:43;10.55;;;2.30;;
29120;SDS011;16191;49.548;8.658;2022-11-15T08:52:28;4.40;;;2.42;;
29120;SDS011;16191;49.548;8.658;2022-11-15T08:55:13;3.47;;;2.30;;
29120;SDS011;16191;49.548;8.658;2022-11-15T08:58:01;5.25;;;2.60;;
29120;SDS011;16191;49.548;8.658;2022-11-15T09:00:46;4.72;;;2.88;;
29120;SDS011;16191;49.548;8.658;2022-11-15T09:03:32;6.75;;;2.63;;
29120;SDS011;16191;49.548;8.658;2022-11-15T09:06:17;4.07;;;2.60;;
29120;SDS011;16191;49.548;8.658;2022-11-15T09:09:03;5.20;;;2.50;;
29120;SDS011;16191;49.548;8.658;2022-11-15T09:11:48;4.57;;;2.30;;
29120;SDS011;16191;49.548;8.658;2022-11-15T09:14:33;5.03;;;2.50;;
29120;SDS011;16191;49.548;8.658;2022-11-15T09:17:19;5.82;;;2.75;;
29120;SDS011;16191;49.548;8.658;2022-11-15T09:20:08;4.65;;;1.88;;
29120;SDS011;16191;49.548;8.658;2022-11-15T09:22:55;2.78;;;1.98;;
29120;SDS011;16191;49.548;8.658;2022-11-15T09:25:44;4.88;;;2.05;;
29120;SDS011;16191;49.548;8.658;2022-11-15T09:28:30;3.83;;;1.92;;
29120;SDS011;16191;49.548;8.658;2022-11-15T09:31:16;8.88;;;2.33;;
29120;SDS011;16191;49.548;8.658;2022-11-15T09:34:06;5.00;;;2.40;;
29120;SDS011;16191;49.548;8.658;2022-11-15T09:36:51;6.90;;;2.42;;
29120;SDS011;16191;49.548;8.658;2022-11-15T09:39:36;2.90;;;1.70;;
29120;SDS011;16191;49.548;8.658;2022-11-15T09:48:56;3.20;;;2.00;;
29120;SDS011;16191;49.548;8.658;2022-11-15T09:51:52;8.55;;;2.38;;
29120;SDS011;16191;49.548;8.658;2022-11-15T09:54:47;3.47;;;1.92;;
29120;SDS011;16191;49.548;8.658;2022-11-15T09:57:43;5.88;;;2.30;;
29120;SDS011;16191;49.548;8.658;2022-11-15T10:00:38;4.22;;;2.05;;
29120;SDS011;16191;49.548;8.658;2022-11-15T10:03:16;4.22;;;2.00;;
29120;SDS011;16191;49.548;8.658;2022-11-15T10:05:46;5.15;;;2.00;;
29120;SDS011;16191;49.548;8.658;2022-11-15T10:11:10;2.95;;;2.05;;
29120;SDS011;16191;49.548;8.658;2022-11-15T10:14:01;7.65;;;2.40;;
29120;SDS011;16191;49.548;8.658;2022-11-15T10:19:56;3.65;;;2.28;;
29120;SDS011;16191;49.548;8.658;2022-11-15T10:22:50;4.28;;;1.90;;
29120;SDS011;16191;49.548;8.658;2022-11-15T10:27:58;3.42;;;2.25;;
29120;SDS011;16191;49.548;8.658;2022-11-15T10:30:36;5.93;;;2.25;;
29120;SDS011;16191;49.548;8.658;2022-11-15T10:33:17;4.82;;;2.13;;
29120;SDS011;16191;49.548;8.658;2022-11-15T10:35:45;5.05;;;2.00;;
29120;SDS011;16191;49.548;8.658;2022-11-15T10:38:12;5.68;;;2.30;;
29120;SDS011;16191;49.548;8.658;2022-11-15T10:40:39;4.05;;;2.30;;
29120;SDS011;16191;49.548;8.658;2022-11-15T10:45:37;5.55;;;2.30;;
29120;SDS011;16191;49.548;8.658;2022-11-15T10:50:41;7.70;;;2.42;;
29120;SDS011;16191;49.548;8.658;2022-11-15T10:53:23;6.45;;;2.47;;
29120;SDS011;16191;49.548;8.658;2022-11-15T10:56:00;6.93;;;2.20;;
29120;SDS011;16191;49.548;8.658;2022-11-15T10:58:38;3.65;;;2.45;;
29120;SDS011;16191;49.548;8.658;2022-11-15T11:01:09;4.85;;;2.20;;
29120;SDS011;16191;49.548;8.658;2022-11-15T11:03:43;4.43;;;2.08;;
29120;SDS011;16191;49.548;8.658;2022-11-15T11:06:16;4.75;;;2.10;;
29120;SDS011;16191;49.548;8.658;2022-11-15T11:08:54;4.93;;;2.72;;
29120;SDS011;16191;49.548;8.658;2022-11-15T11:11:43;3.83;;;1.90;;
29120;SDS011;16191;49.548;8.658;2022-11-15T11:14:12;5.60;;;2.38;;
29120;SDS011;16191;49.548;8.658;2022-11-15T11:22:18;5.13;;;2.53;;
29120;SDS011;16191;49.548;8.658;2022-11-15T11:27:48;9.25;;;2.10;;
29120;SDS011;16191;49.548;8.658;2022-11-15T11:33:13;8.48;;;2.30;;
29120;SDS011;16191;49.548;8.658;2022-11-15T11:38:19;4.57;;;2.00;;
29120;SDS011;16191;49.548;8.658;2022-11-15T11:49:20;10.88;;;2.70;;
29120;SDS011;16191;49.548;8.658;2022-11-15T11:51:54;4.13;;;1.58;;
29120;SDS011;16191;49.548;8.658;2022-11-15T11:54:42;7.75;;;2.10;;
29120;SDS011;16191;49.548;8.658;2022-11-15T12:00:20;2.72;;;1.73;;
29120;SDS011;16191;49.548;8.658;2022-11-15T12:05:38;3.35;;;1.58;;
29120;SDS011;16191;49.548;8.658;2022-11-15T12:14:33;5.68;;;1.35;;
29120;SDS011;16191;49.548;8.658;2022-11-15T12:17:34;4.90;;;1.52;;
29120;SDS011;16191;49.548;8.658;2022-11-15T12:20:03;5.63;;;1.77;;
29120;SDS011;16191;49.548;8.658;2022-11-15T12:25:16;3.10;;;1.73;;
29120;SDS011;16191;49.548;8.658;2022-11-15T12:28:15;2.55;;;1.40;;
29120;SDS011;16191;49.548;8.658;2022-11-15T12:30:49;5.38;;;1.80;;
29120;SDS011;16191;49.548;8.658;2022-11-15T12:33:31;4.47;;;1.80;;
29120;SDS011;16191;49.548;8.658;2022-11-15T12:41:38;4.78;;;1.63;;
29120;SDS011;16191;49.548;8.658;2022-11-15T13:12:55;2.10;;;1.50;;
29120;SDS011;16191;49.548;8.658;2022-11-15T13:15:34;4.07;;;1.75;;
29120;SDS011;16191;49.548;8.658;2022-11-15T13:20:54;8.10;;;1.85;;
29120;SDS011;16191;49.548;8.658;2022-11-15T13:23:27;5.85;;;2.38;;
29120;SDS011;16191;49.548;8.658;2022-11-15T13:26:13;13.95;;;5.32;;
29120;SDS011;16191;49.548;8.658;2022-11-15T13:31:20;10.88;;;3.08;;
29120;SDS011;16191;49.548;8.658;2022-11-15T13:33:53;7.78;;;3.30;;
29120;SDS011;16191;49.548;8.658;2022-11-15T13:36:23;7.10;;;3.05;;
29120;SDS011;16191;49.548;8.658;2022-11-15T13:38:54;13.23;;;4.00;;
29120;SDS011;16191;49.548;8.658;2022-11-15T13:41:30;13.27;;;4.40;;
29120;SDS011;16191;49.548;8.658;2022-11-15T13:44:01;5.57;;;2.22;;
29120;SDS011;16191;49.548;8.658;2022-11-15T13:46:30;4.63;;;2.17;;
29120;SDS011;16191;49.548;8.658;2022-11-15T13:49:07;8.15;;;2.80;;
29120;SDS011;16191;49.548;8.658;2022-11-15T13:51:39;7.45;;;2.17;;
29120;SDS011;16191;49.548;8.658;2022-11-15T13:56:55;6.80;;;2.13;;
29120;SDS011;16191;49.548;8.658;2022-11-15T14:02:01;5.90;;;2.22;;
29120;SDS011;16191;49.548;8.658;2022-11-15T14:04:36;9.98;;;2.70;;
29120;SDS011;16191;49.548;8.658;2022-11-15T14:07:14;4.45;;;2.75;;
29120;SDS011;16191;49.548;8.658;2022-11-15T14:09:44;9.50;;;2.80;;
29120;SDS011;16191;49.548;8.658;2022-11-15T14:12:32;5.55;;;2.33;;
29120;SDS011;16191;49.548;8.658;2022-11-15T14:15:17;8.13;;;3.05;;
29120;SDS011;16191;49.548;8.658;2022-11-15T14:18:01;8.77;;;3.55;;
29120;SDS011;16191;49.548;8.658;2022-11-15T14:20:30;7.40;;;3.28;;
29120;SDS011;16191;49.548;8.658;2022-11-15T14:23:04;8.48;;;2.70;;
29120;SDS011;16191;49.548;8.658;2022-11-15T14:25:34;24.67;;;9.05;;
29120;SDS011;16191;49.548;8.658;2022-11-15T14:30:40;7.75;;;3.60;;
29120;SDS011;16191;49.548;8.658;2022-11-15T14:33:43;9.25;;;3.22;;
29120;SDS011;16191;49.548;8.658;2022-11-15T14:36:10;11.68;;;4.10;;
29120;SDS011;16191;49.548;8.658;2022-11-15T14:38:39;4.97;;;2.17;;
29120;SDS011;16191;49.548;8.658;2022-11-15T14:41:10;5.20;;;1.80;;
29120;SDS011;16191;49.548;8.658;2022-11-15T14:46:51;4.35;;;1.70;;
29120;SDS011;16191;49.548;8.658;2022-11-15T14:49:17;4.18;;;1.35;;
29120;SDS011;16191;49.548;8.658;2022-11-15T14:51:44;5.53;;;1.45;;
29120;SDS011;16191;49.548;8.658;2022-11-15T14:54:11;3.35;;;1.55;;
29120;SDS011;16191;49.548;8.658;2022-11-15T14:56:37;4.00;;;1.65;;
29120;SDS011;16191;49.548;8.658;2022-11-15T14:59:03;3.00;;;1.58;;
29120;SDS011;16191;49.548;8.658;2022-11-15T15:01:30;5.97;;;2.25;;
29120;SDS011;16191;49.548;8.658;2022-11-15T15:03:57;6.93;;;2.35;;
29120;SDS011;16191;49.548;8.658;2022-11-15T15:06:24;3.72;;;1.48;;
29120;SDS011;16191;49.548;8.658;2022-11-15T15:08:51;6.18;;;1.73;;
29120;SDS011;16191;49.548;8.658;2022-11-15T15:11:22;1.63;;;1.30;;
29120;SDS011;16191;49.548;8.658;2022-11-15T15:13:50;2.50;;;1.20;;
29120;SDS011;16191;49.548;8.658;2022-11-15T15:16:18;2.88;;;1.40;;
29120;SDS011;16191;49.548;8.658;2022-11-15T15:18:46;2.22;;;1.13;;
29120;SDS011;16191;49.548;8.658;2022-11-15T15:21:17;2.83;;;1.63;;
29120;SDS011;16191;49.548;8.658;2022-11-15T15:23:47;2.47;;;1.27;;
29120;SDS011;16191;49.548;8.658;2022-11-15T15:26:13;3.95;;;1.58;;
29120;SDS011;16191;49.548;8.658;2022-11-15T15:28:40;2.92;;;1.80;;
29120;SDS011;16191;49.548;8.658;2022-11-15T15:31:08;3.33;;;1.67;;
29120;SDS011;16191;49.548;8.658;2022-11-15T15:33:35;4.35;;;1.60;;
29120;SDS011;16191;49.548;8.658;2022-11-15T15:36:02;5.32;;;1.50;;
29120;SDS011;16191;49.548;8.658;2022-11-15T15:38:29;7.32;;;1.55;;
29120;SDS011;16191;49.548;8.658;2022-11-15T15:40:56;2.58;;;1.45;;
29120;SDS011;16191;49.548;8.658;2022-11-15T15:43:23;7.85;;;1.85;;
29120;SDS011;16191;49.548;8.658;2022-11-15T15:45:49;5.82;;;1.88;;
29120;SDS011;16191;49.548;8.658;2022-11-15T15:48:16;7.25;;;1.95;;
29120;SDS011;16191;49.548;8.658;2022-11-15T15:50:43;2.17;;;1.35;;
29120;SDS011;16191;49.548;8.658;2022-11-15T15:53:10;3.95;;;1.60;;
29120;SDS011;16191;49.548;8.658;2022-11-15T15:55:38;3.67;;;1.38;;
29120;SDS011;16191;49.548;8.658;2022-11-15T15:58:05;2.40;;;1.33;;
29120;SDS011;16191;49.548;8.658;2022-11-15T16:00:34;3.75;;;1.60;;
29120;SDS011;16191;49.548;8.658;2022-11-15T16:03:00;2.85;;;1.33;;
29120;SDS011;16191;49.548;8.658;2022-11-15T16:05:27;4.47;;;1.63;;
29120;SDS011;16191;49.548;8.658;2022-11-15T16:07:54;3.25;;;1.55;;
29120;SDS011;16191;49.548;8.658;2022-11-15T16:10:28;3.97;;;1.58;;
29120;SDS011;16191;49.548;8.658;2022-11-15T16:12:56;2.13;;;1.52;;
29120;SDS011;16191;49.548;8.658;2022-11-15T16:15:24;3.42;;;1.90;;
29120;SDS011;16191;49.548;8.658;2022-11-15T16:17:53;3.75;;;2.05;;
29120;SDS011;16191;49.548;8.658;2022-11-15T16:22:59;4.07;;;1.80;;
29120;SDS011;16191;49.548;8.658;2022-11-15T16:25:38;3.97;;;1.83;;
29120;SDS011;16191;49.548;8.658;2022-11-15T16:28:20;3.65;;;2.20;;
29120;SDS011;16191;49.548;8.658;2022-11-15T16:30:49;2.63;;;1.90;;
29120;SDS011;16191;49.548;8.658;2022-11-15T16:33:28;6.43;;;2.00;;
29120;SDS011;16191;49.548;8.658;2022-11-15T16:35:56;4.35;;;2.08;;
29120;SDS011;16191;49.548;8.658;2022-11-15T16:38:23;5.10;;;2.20;;
29120;SDS011;16191;49.548;8.658;2022-11-15T16:40:50;8.50;;;1.83;;
29120;SDS011;16191;49.548;8.658;2022-11-15T16:43:16;4.00;;;1.90;;
29120;SDS011;16191;49.548;8.658;2022-11-15T16:45:43;3.67;;;2.20;;
29120;SDS011;16191;49.548;8.658;2022-11-15T16:48:18;5.40;;;2.28;;
29120;SDS011;16191;49.548;8.658;2022-11-15T16:50:47;3.85;;;2.38;;
29120;SDS011;16191;49.548;8.658;2022-11-15T16:53:14;3.28;;;2.00;;
29120;SDS011;16191;49.548;8.658;2022-11-15T16:55:41;4.03;;;2.42;;
29120;SDS011;16191;49.548;8.658;2022-11-15T16:58:08;5.78;;;2.40;;
29120;SDS011;16191;49.548;8.658;2022-11-15T17:00:35;3.78;;;1.92;;
29120;SDS011;16191;49.548;8.658;2022-11-15T17:03:01;3.55;;;2.17;;
29120;SDS011;16191;49.548;8.658;2022-11-15T17:05:29;5.50;;;2.35;;
29120;SDS011;16191;49.548;8.658;2022-11-15T17:07:56;7.22;;;2.20;;
29120;SDS011;16191;49.548;8.658;2022-11-15T17:10:23;4.95;;;2.17;;
29120;SDS011;16191;49.548;8.658;2022-11-15T17:12:52;5.28;;;2.45;;
29120;SDS011;16191;49.548;8.658;2022-11-15T17:15:21;9.30;;;2.17;;
29120;SDS011;16191;49.548;8.658;2022-11-15T17:17:50;3.70;;;1.98;;
29120;SDS011;16191;49.548;8.658;2022-11-15T17:20:20;7.82;;;2.40;;
29120;SDS011;16191;49.548;8.658;2022-11-15T17:22:48;5.07;;;2.10;;
29120;SDS011;16191;49.548;8.658;2022-11-15T17:25:16;4.60;;;1.90;;
29120;SDS011;16191;49.548;8.658;2022-11-15T17:27:43;4.32;;;2.15;;
29120;SDS011;16191;49.548;8.658;2022-11-15T17:30:11;3.15;;;1.73;;
29120;SDS011;16191;49.548;8.658;2022-11-15T17:32:41;10.68;;;2.10;;
29120;SDS011;16191;49.548;8.658;2022-11-15T17:35:08;5.97;;;1.95;;
29120;SDS011;16191;49.548;8.658;2022-11-15T17:37:41;3.45;;;1.52;;
29120;SDS011;16191;49.548;8.658;2022-11-15T17:40:08;2.42;;;1.70;;
29120;SDS011;16191;49.548;8.658;2022-11-15T17:42:35;4.22;;;1.80;;
29120;SDS011;16191;49.548;8.658;2022-11-15T17:45:02;2.50;;;1.80;;
29120;SDS011;16191;49.548;8.658;2022-11-15T17:47:35;4.00;;;1.92;;
29120;SDS011;16191;49.548;8.658;2022-11-15T17:50:02;5.20;;;1.70;;
29120;SDS011;16191;49.548;8.658;2022-11-15T17:52:29;3.58;;;1.80;;
29120;SDS011;16191;49.548;8.658;2022-11-15T17:55:27;3.45;;;1.50;;
29120;SDS011;16191;49.548;8.658;2022-11-15T17:57:53;4.07;;;1.65;;
29120;SDS011;16191;49.548;8.658;2022-11-15T18:00:20;5.97;;;1.83;;
29120;SDS011;16191;49.548;8.658;2022-11-15T18:02:46;3.10;;;2.00;;
29120;SDS011;16191;49.548;8.658;2022-11-15T18:05:13;3.75;;;1.90;;
29120;SDS011;16191;49.548;8.658;2022-11-15T18:07:40;4.75;;;1.90;;
29120;SDS011;16191;49.548;8.658;2022-11-15T18:10:07;6.47;;;1.95;;
29120;SDS011;16191;49.548;8.658;2022-11-15T18:12:33;9.30;;;1.77;;
29120;SDS011;16191;49.548;8.658;2022-11-15T18:15:00;3.30;;;1.90;;
29120;SDS011;16191;49.548;8.658;2022-11-15T18:17:27;5.68;;;1.98;;
29120;SDS011;16191;49.548;8.658;2022-11-15T18:19:53;7.22;;;2.42;;
29120;SDS011;16191;49.548;8.658;2022-11-15T18:22:20;2.42;;;1.60;;
29120;SDS011;16191;49.548;8.658;2022-11-15T18:24:47;2.92;;;1.77;;
29120;SDS011;16191;49.548;8.658;2022-11-15T18:27:13;9.52;;;1.60;;
29120;SDS011;16191;49.548;8.658;2022-11-15T18:29:40;3.50;;;1.42;;
29120;SDS011;16191;49.548;8.658;2022-11-15T18:32:06;3.55;;;1.75;;
29120;SDS011;16191;49.548;8.658;2022-11-15T18:34:37;1.85;;;1.27;;
29120;SDS011;16191;49.548;8.658;2022-11-15T18:37:04;5.28;;;1.80;;